Latest Coastal Weather Observations for Frederick Reef

IDQ60701

Issued at 5:22 pm EST Wednesday 8 February 2023 (issued every 10 minutes, with the page automatically refreshed every 10 minutes)

About coastal observations | Map of coastal stations | Coastal observations for QLD | Marine services | Other Formats
Station Details ID: 200701 Name: FREDERICK REEF Lat: -20.94 Lon: 154.40 Height: 4.9 m
Data from the previous 72 hours. | See also: Recent months at Frederick Reef
Date/Time
EST
Wind Sea
Height
m
Swell Vis
km
Cloud Weather Temp
°C
Press
MSL
hPa
Rain since
9am
mm
Dir  Spd
kts
Gust
kts
Height
m
Period
s
Dir
08/05:00pm ESE 29 34 - - - - - - - 26.0 1003.2 -
08/04:30pm ESE 26 31 - - - - - - - 26.8 1003.0 -
08/04:00pm ESE 27 30 - - - - - - - 26.5 1003.0 -
08/03:30pm ESE 29 32 - - - - - - - 26.3 1002.9 -
08/03:00pm ESE 27 31 - - - - - - - 26.5 1003.0 -
08/02:30pm ESE 27 31 - - - - - - - 27.0 1003.0 -
08/02:00pm ESE 27 32 - - - - - - - 27.2 1002.9 -
08/01:30pm ESE 27 32 - - - - - - - 27.6 1003.0 -
08/01:00pm ESE 25 29 - - - - - - - 26.4 1003.4 -
08/12:30pm ESE 26 31 - - - - - - - 27.2 1003.7 -
08/12:00pm ESE 28 32 - - - - - - - 27.0 1003.8 -
08/11:30am ESE 27 30 - - - - - - - 27.7 1004.2 -
08/11:00am ESE 27 31 - - - - - - - 27.8 1004.5 -
08/10:30am ESE 27 30 - - - - - - - 27.9 1004.8 -
08/10:00am ESE 25 28 - - - - - - - 27.9 1004.9 -
08/09:30am ESE 27 30 - - - - - - - 27.8 1005.0 -
08/09:00am ESE 25 29 - - - - - - - 27.7 1005.0 -
08/08:30am ESE 26 29 - - - - - - - 27.8 1004.9 -
08/08:00am ESE 26 30 - - - - - - - 27.5 1004.7 -
08/07:30am ESE 25 29 - - - - - - - 27.6 1004.7 -
08/07:00am ESE 25 28 - - - - - - - 27.4 1004.7 -
08/06:30am ESE 25 28 - - - - - - - 27.5 1004.7 -
08/06:00am ESE 26 29 - - - - - - - 27.5 1004.6 -
08/05:30am ESE 25 29 - - - - - - - 27.3 1004.1 -
08/05:00am ESE 25 28 - - - - - - - 27.2 1003.9 -
08/04:30am ESE 25 27 - - - - - - - 27.3 1003.9 -
08/04:00am ESE 25 28 - - - - - - - 27.3 1004.0 -
08/03:30am ESE 25 29 - - - - - - - 27.3 1004.0 -
08/03:00am ESE 25 28 - - - - - - - 27.4 1004.2 -
08/02:30am ESE 24 27 - - - - - - - 27.4 1004.4 -
08/02:00am ESE 23 25 - - - - - - - 27.4 1004.6 -
08/01:30am ESE 22 24 - - - - - - - 27.4 1004.9 -
08/01:00am ESE 24 27 - - - - - - - 27.0 1005.4 -
08/12:30am ESE 23 27 - - - - - - - 26.5 1005.7 -
08/12:00am ESE 26 30 - - - - - - - 26.2 1006.2 -
 
Date/Time
EST
Wind Sea
Height
m
Swell Vis
km
Cloud Weather Temp
°C
Press
MSL
hPa
Rain since
9am
mm
Dir  Spd
kts
Gust
kts
Height
m
Period
s
Dir
07/11:30pm ESE 25 28 - - - - - - - 26.5 1006.4 -
07/11:00pm ESE 24 28 - - - - - - - 26.3 1006.6 -
07/10:30pm SE 24 28 - - - - - - - 27.1 1006.7 -
07/10:00pm SE 22 25 - - - - - - - 27.3 1006.9 -
07/09:30pm SE 25 29 - - - - - - - 27.1 1006.9 -
07/09:00pm SE 23 29 - - - - - - - 27.7 1006.6 -
07/08:30pm SE 24 27 - - - - - - - 28.0 1006.6 -
07/08:00pm SE 24 28 - - - - - - - 27.8 1006.4 -
07/07:30pm SE 24 28 - - - - - - - 28.0 1006.2 -
07/07:00pm SE 25 28 - - - - - - - 27.9 1006.0 -
07/06:30pm SE 26 28 - - - - - - - 27.6 1005.5 -
07/06:00pm SE 24 27 - - - - - - - 27.8 1005.3 -
07/05:30pm SE 24 27 - - - - - - - 28.0 1005.2 -
07/05:00pm SE 25 28 - - - - - - - 27.8 1004.9 -
07/04:30pm SE 23 26 - - - - - - - 27.9 1004.9 -
07/04:00pm SE 23 27 - - - - - - - 27.9 1004.9 -
07/03:30pm SE 24 27 - - - - - - - 27.9 1004.8 -
07/03:00pm SE 24 27 - - - - - - - 27.8 1005.0 -
07/02:30pm SSE 24 26 - - - - - - - 27.8 1005.2 -
07/02:00pm SE 24 27 - - - - - - - 27.9 1005.4 -
07/01:30pm SE 22 25 - - - - - - - 27.9 1005.7 -
07/01:00pm SE 21 25 - - - - - - - 27.8 1006.0 -
07/12:30pm SE 21 24 - - - - - - - 27.9 1006.0 -
07/12:00pm SE 22 25 - - - - - - - 27.8 1006.1 -
07/11:30am SE 21 24 - - - - - - - 27.7 1006.5 -
07/11:00am SE 22 25 - - - - - - - 27.8 1006.7 -
07/10:30am SE 23 26 - - - - - - - 27.8 1006.9 -
07/10:00am ESE 22 25 - - - - - - - 27.9 1007.0 -
07/09:30am SE 22 25 - - - - - - - 27.9 1007.1 -
07/09:00am SE 23 26 - - - - - - - 27.9 1007.2 -
07/08:30am SE 24 28 - - - - - - - 27.8 1007.2 -
07/08:00am SE 24 27 - - - - - - - 27.9 1007.0 -
07/07:30am SE 25 28 - - - - - - - 27.8 1007.0 -
07/07:00am SE 26 32 - - - - - - - 26.3 1006.8 -
07/06:30am SE 23 26 - - - - - - - 27.6 1006.7 -
07/06:00am SE 24 27 - - - - - - - 27.8 1006.4 -
07/05:30am SE 23 27 - - - - - - - 27.8 1006.2 -
07/05:00am SE 24 27 - - - - - - - 27.9 1006.0 -
07/04:30am SE 25 29 - - - - - - - 27.9 1005.9 -
07/04:00am SE 27 29 - - - - - - - 27.8 1005.5 -
07/03:30am SE 26 28 - - - - - - - 27.7 1005.4 -
07/03:00am SE 26 28 - - - - - - - 27.9 1005.6 -
07/02:30am SE 24 27 - - - - - - - 27.9 1005.8 -
07/02:00am SE 25 28 - - - - - - - 27.9 1005.9 -
07/01:30am SE 23 27 - - - - - - - 27.9 1006.3 -
07/01:00am SE 24 28 - - - - - - - 28.0 1006.6 -
07/12:30am SE 24 28 - - - - - - - 28.1 1007.0 -
07/12:00am SE 25 28 - - - - - - - 28.0 1007.3 -
 
Date/Time
EST
Wind Sea
Height
m
Swell Vis
km
Cloud Weather Temp
°C
Press
MSL
hPa
Rain since
9am
mm
Dir  Spd
kts
Gust
kts
Height
m
Period
s
Dir
06/11:30pm ESE 27 31 - - - - - - - 28.4 1007.7 -
06/11:00pm SE 27 30 - - - - - - - 28.1 1007.9 -
06/10:30pm SE 25 29 - - - - - - - 27.9 1008.1 -
06/10:00pm SE 23 27 - - - - - - - 28.2 1008.3 -
06/09:30pm SE 25 29 - - - - - - - 27.9 1008.5 -
06/09:00pm SE 26 30 - - - - - - - 28.0 1008.4 -
06/08:30pm SE 26 30 - - - - - - - 28.1 1008.4 -
06/08:00pm SE 25 29 - - - - - - - 28.0 1008.4 -
06/07:30pm SE 25 28 - - - - - - - 28.0 1008.3 -
06/07:00pm SE 25 29 - - - - - - - 28.2 1008.1 -
06/06:30pm SE 24 28 - - - - - - - 28.1 1007.8 -
06/06:00pm SE 26 29 - - - - - - - 28.2 1007.4 -
06/05:30pm SE 22 24 - - - - - - - 28.1 1007.3 -
06/05:00pm SE 23 26 - - - - - - - 28.1 1007.1 -
06/04:30pm SE 22 25 - - - - - - - 28.2 1007.0 -
06/04:00pm SE 22 25 - - - - - - - 28.1 1007.2 -
06/03:30pm SE 21 25 - - - - - - - 28.0 1007.1 -
06/03:00pm SE 20 23 - - - - - - - 28.0 1007.3 -
06/02:30pm SE 21 24 - - - - - - - 28.0 1007.4 -
06/02:00pm SE 21 24 - - - - - - - 28.1 1007.6 -
06/01:30pm SE 21 23 - - - - - - - 28.1 1007.8 -
06/01:00pm SE 19 22 - - - - - - - 27.9 1008.3 -
06/12:30pm SE 19 21 - - - - - - - 28.0 1008.7 -
06/12:00pm SE 19 21 - - - - - - - 28.0 1009.0 -
06/11:30am SE 19 21 - - - - - - - 28.1 1009.2 -
06/11:00am SE 19 21 - - - - - - - 28.0 1009.3 -
06/10:30am SE 22 24 - - - - - - - 28.1 1009.5 -
06/10:00am ESE 20 22 - - - - - - - 28.0 1009.8 -
06/09:30am SE 22 25 - - - - - - - 27.9 1010.0 -
06/09:00am ESE 22 24 - - - - - - - 28.0 1010.0 -
06/08:30am SE 24 26 - - - - - - - 28.0 1009.9 -
06/08:00am SE 23 25 - - - - - - - 27.9 1009.6 -
06/07:30am SE 22 25 - - - - - - - 27.9 1009.3 -
06/07:00am SE 19 22 - - - - - - - 27.9 1009.4 -
06/06:30am SE 21 23 - - - - - - - 27.9 1009.3 -
06/06:00am SE 20 22 - - - - - - - 27.9 1009.1 -
06/05:30am SE 19 22 - - - - - - - 27.9 1008.6 -
06/05:00am ESE 19 22 - - - - - - - 27.7 1008.3 -
06/04:30am SE 20 23 - - - - - - - 27.7 1008.1 -
06/04:00am ESE 19 22 - - - - - - - 27.9 1008.0 -
06/03:30am SE 18 20 - - - - - - - 27.7 1008.1 -
06/03:00am ESE 19 21 - - - - - - - 27.8 1008.0 -
06/02:30am ESE 20 23 - - - - - - - 27.9 1008.1 -
06/02:00am ESE 20 22 - - - - - - - 27.9 1008.1 -
06/01:30am ESE 21 24 - - - - - - - 27.9 1008.1 -
06/01:00am ESE 20 23 - - - - - - - 27.9 1008.4 -
06/12:30am ESE 21 24 - - - - - - - 28.0 1008.7 -
06/12:00am ESE 22 25 - - - - - - - 28.0 1008.9 -
 
Date/Time
EST
Wind Sea
Height
m
Swell Vis
km
Cloud Weather Temp
°C
Press
MSL
hPa
Rain since
9am
mm
Dir  Spd
kts
Gust
kts
Height
m
Period
s
Dir
05/11:30pm ESE 20 23 - - - - - - - 27.9 1009.0 -
05/11:00pm ESE 21 23 - - - - - - - 27.9 1009.0 -
05/10:30pm ESE 21 24 - - - - - - - 28.0 1009.4 -
05/10:00pm E 6 22 - - - - - - - 27.9 1009.5 -
05/09:30pm E 1 10 - - - - - - - 28.1 1009.7 -
05/09:00pm E 1 4 - - - - - - - 28.0 1009.4 -
05/08:30pm E 1 5 - - - - - - - 28.0 1009.2 -
05/08:00pm CALM 0 2 - - - - - - - 28.0 1009.2 -
05/07:30pm ESE 1 7 - - - - - - - 28.1 1009.1 -
05/07:00pm E 1 5 - - - - - - - 28.1 1008.9 -
05/06:30pm E 1 8 - - - - - - - 28.2 1008.7 -
05/06:00pm CALM 0 5 - - - - - - - 28.3 1008.6 -
05/05:30pm ESE 1 5 - - - - - - - 28.3 1008.3 -

Other formats

Comma delimited format used in spreadsheet applications
http://www.bom.gov.au/fwo/IDQ60701/IDQ60701.94393.axf

JavaScript Object Notation format (JSON) in row-major order
http://www.bom.gov.au/fwo/IDQ60701/IDQ60701.94393.json

Data quality

Most of these data are generated automatically and are frequently updated. Quality checks on data are not normally performed. It is possible for incorrect values to appear. Refer to information at About Latest Weather Observations and please check the disclaimer before using these data.